Hauptseite
METAR-TAF:

METAR-TAF

Flughäfen :

Bohrplattform

Ekofisk, Norwegen

Breite: 56-33N, Länge: 003-15E, Höhe: 3 m

Beobachtung

Neuester Wetterbericht von vor 33 Minuten, um 01:50 UTC
Wind 18 kt aus Ost
Temperatur 9°C
Luftfeuchtigkeit 87%
Luftdruck 1037 hPa
Sichtweite 10 km oder mehr
Aufgelockert bewölkt in der Höhe von 1200 ft

METAR: ENLE 180150Z 10018KT 9999 SCT012 09/07 Q1037 W10/S4

Zeit: 03:23 (02:23 UTC)

Prognose

Neuester Wetterbericht von vor 3 Stunden und 23 Minuten, um 23:00 UTC
Gültige Prognose vom 18 um 00 UTC bis 18 um 09 UTC
Wind 18 kt aus Ost/Südost
Sichtweite 10 km oder mehr
Durchbrochene Bewölkung in der Höhe von 1200 ft
Zeitweise
vom 18 um 00 UTC bis 18 um 09 UTC
Aufgelockert bewölkt in der Höhe von 1500 ft

TAF: ENLE 172300Z 1800/1809 11018KT 9999 BKN012 TEMPO 1800/1809 SCT015

Wetterbeobachtungen und Prognosen von mehr als 4000 Flughäfen (METAR und TAF Bericht).

Die verfügbaren Stationen werden durch gelbe und rote Markierungen auf der Karte dargestellt.

Führen Sie die Maus auf sie, um den Namen der Station zu sehen.

Darauf klicken, um die Beobachtung von Wetterbeobachtungen und Prognosen zu sehen.

Um die Karte zu ändern : klicken Sie auf den grünen Tasten mit einem schwarzen Kreuz Zum Vergrößern, auf den grünen Button mit einem Gedankenstrich zu verkleinern, oder auf die grünen Pfeile für benachbarte Karten.


METAR-TAF: